Time;durP1;ratioP1;P1;durP2;ratioP2;P2;SDS_P1;SDS_P2;PMS_P1;PMS_P2;Temp;Humidity;BMP_temperature;BMP_pressure;BME280_temperature;BME280_humidity;BME280_pressure;Samples;Min_cycle;Max_cycle;Signal;HPM_P1;HPM_P2
2024/03/14 00:01:46;;;;;;;4.23;3.23;;;21.50;55.40;;;;;;5019437;28;20940;-77
2024/03/14 00:04:14;;;;;;;4.80;4.10;;;21.50;55.50;;;;;;5037219;28;20453;-76
2024/03/14 00:06:42;;;;;;;4.93;3.40;;;21.50;55.50;;;;;;5019375;28;20180;-78
2024/03/14 00:09:08;;;;;;;6.70;4.27;;;21.50;55.50;;;;;;5037302;28;20421;-77
2024/03/14 00:11:34;;;;;;;6.70;4.30;;;21.50;55.50;;;;;;5037452;28;20414;-77
2024/03/14 00:14:00;;;;;;;7.90;4.83;;;21.50;55.50;;;;;;5037005;28;20768;-77
2024/03/14 00:16:26;;;;;;;5.90;4.20;;;21.50;55.50;;;;;;5037136;28;20176;-77
2024/03/14 00:18:52;;;;;;;4.23;3.20;;;21.50;55.50;;;;;;5037293;28;20414;-77
2024/03/14 00:21:20;;;;;;;5.57;3.97;;;21.50;55.50;;;;;;5037181;28;20410;-77
2024/03/14 00:23:46;;;;;;;4.90;3.60;;;21.50;55.50;;;;;;5037223;28;20430;-77
2024/03/14 00:26:15;;;;;;;5.03;3.50;;;21.50;55.50;;;;;;5037303;28;20421;-75
2024/03/14 00:28:41;;;;;;;5.33;3.23;;;21.50;55.50;;;;;;5019391;28;20195;-77
2024/03/14 00:31:07;;;;;;;5.03;3.63;;;21.50;55.50;;;;;;5037547;28;20465;-77
2024/03/14 00:33:33;;;;;;;5.07;4.10;;;21.50;55.50;;;;;;5037618;28;20700;-77
2024/03/14 00:36:01;;;;;;;5.93;3.90;;;21.50;55.50;;;;;;5037097;28;20191;-77
2024/03/14 00:38:26;;;;;;;5.60;3.67;;;21.50;56.00;;;;;;5034652;28;20414;-78
2024/03/14 00:40:52;;;;;;;4.00;3.60;;;21.50;55.50;;;;;;5034205;28;20410;-77
2024/03/14 00:43:17;;;;;;;5.10;3.90;;;21.50;55.50;;;;;;5016460;28;20211;-77
2024/03/14 00:45:43;;;;;;;4.80;3.40;;;21.50;55.50;;;;;;5033846;28;20211;-77
2024/03/14 00:48:09;;;;;;;4.40;3.40;;;21.50;55.50;;;;;;5033896;28;20171;-77
2024/03/14 00:50:36;;;;;;;5.50;3.47;;;21.50;55.50;;;;;;5034023;28;20171;-77
2024/03/14 00:53:02;;;;;;;6.00;3.67;;;21.50;55.50;;;;;;5033979;28;20422;-75
2024/03/14 00:55:28;;;;;;;5.40;3.70;;;21.50;55.50;;;;;;5033327;28;20452;-76
2024/03/14 00:57:54;;;;;;;4.63;4.20;;;21.50;55.50;;;;;;5033501;28;20629;-76
2024/03/14 01:00:23;;;;;;;4.80;3.80;;;21.50;55.50;;;;;;5034067;28;20510;-75
2024/03/14 01:02:50;;;;;;;3.87;3.40;;;21.50;55.50;;;;;;5033670;28;20175;-77
2024/03/14 01:05:16;;;;;;;4.87;3.83;;;21.50;55.50;;;;;;5033296;28;20485;-76
2024/03/14 01:07:44;;;;;;;4.53;3.43;;;21.50;55.50;;;;;;5033732;28;20448;-77
2024/03/14 01:10:10;;;;;;;6.50;3.73;;;21.50;56.00;;;;;;5033482;28;20434;-76
2024/03/14 01:12:36;;;;;;;4.13;3.40;;;21.50;55.40;;;;;;5033375;28;20449;-75
2024/03/14 01:15:01;;;;;;;4.03;2.97;;;21.50;55.50;;;;;;5033319;28;20227;-76
2024/03/14 01:17:27;;;;;;;4.40;3.60;;;21.50;55.50;;;;;;5033311;28;20183;-77
2024/03/14 01:19:53;;;;;;;5.03;3.63;;;21.50;55.50;;;;;;5033475;28;20703;-76
2024/03/14 01:22:19;;;;;;;5.70;4.10;;;21.40;55.40;;;;;;5033375;28;20984;-76
2024/03/14 01:24:45;;;;;;;5.07;3.80;;;21.40;55.40;;;;;;5033098;28;20458;-77
2024/03/14 01:27:10;;;;;;;6.03;3.50;;;21.40;55.40;;;;;;5033225;28;20171;-76
2024/03/14 01:29:37;;;;;;;4.23;3.60;;;21.40;55.40;;;;;;5033052;28;20214;-77
2024/03/14 01:32:04;;;;;;;7.30;3.50;;;21.40;55.40;;;;;;5033347;28;20175;-77
2024/03/14 01:34:30;;;;;;;4.50;3.23;;;21.40;55.40;;;;;;5015005;28;20510;-77
2024/03/14 01:37:06;;;;;;;4.73;3.13;;;21.40;55.40;;;;;;5032645;28;20422;-76
2024/03/14 01:39:32;;;;;;;5.80;3.50;;;21.40;55.40;;;;;;5015128;28;20175;-77
2024/03/14 01:41:57;;;;;;;4.80;4.00;;;21.40;55.50;;;;;;5032755;28;20418;-77
2024/03/14 01:44:23;;;;;;;4.30;3.03;;;21.40;55.50;;;;;;5032518;28;20452;-77
2024/03/14 01:46:49;;;;;;;5.83;3.77;;;21.40;55.50;;;;;;5032612;28;20592;-77
2024/03/14 01:49:15;;;;;;;4.10;2.90;;;21.40;55.50;;;;;;5013974;28;20453;-78
2024/03/14 01:51:41;;;;;;;5.00;3.57;;;21.40;55.50;;;;;;5032272;28;20603;-77
2024/03/14 01:54:06;;;;;;;3.90;3.40;;;21.40;55.50;;;;;;5032313;28;20525;-77
2024/03/14 01:56:32;;;;;;;5.17;2.90;;;21.40;55.50;;;;;;5014694;28;20167;-77
2024/03/14 01:58:58;;;;;;;5.00;3.50;;;21.40;55.50;;;;;;5032535;28;20263;-76
2024/03/14 02:01:24;;;;;;;6.10;3.80;;;21.40;55.50;;;;;;5032661;28;20514;-77
2024/03/14 02:04:17;;;;;;;3.80;2.87;;;21.40;55.50;;;;;;5032022;28;20286;-77
2024/03/14 02:06:58;;;;;;;6.53;3.83;;;21.40;55.50;;;;;;5032271;28;20160;-76
2024/03/14 02:09:28;;;;;;;5.37;3.70;;;21.40;55.50;;;;;;5032100;28;20403;-77
2024/03/14 02:11:53;;;;;;;5.27;3.30;;;21.40;55.50;;;;;;5032484;28;20837;-77
2024/03/14 02:14:19;;;;;;;5.83;3.23;;;21.40;55.50;;;;;;5032134;28;20536;-77
2024/03/14 02:16:45;;;;;;;4.57;3.20;;;21.40;55.50;;;;;;5032266;28;20558;-77
2024/03/14 02:19:11;;;;;;;4.60;4.10;;;21.40;55.50;;;;;;5031945;28;20203;-77
2024/03/14 02:21:38;;;;;;;3.20;2.50;;;21.40;55.50;;;;;;5031872;28;20173;-77
2024/03/14 02:24:04;;;;;;;5.33;4.13;;;21.40;55.50;;;;;;5031932;28;20450;-77
2024/03/14 02:26:30;;;;;;;4.57;3.40;;;21.40;55.50;;;;;;5032071;28;20469;-77
2024/03/14 02:28:55;;;;;;;5.53;3.30;;;21.40;55.50;;;;;;5032007;28;20263;-77
2024/03/14 02:31:21;;;;;;;3.70;2.77;;;21.40;55.50;;;;;;5032082;28;20253;-77
2024/03/14 02:33:47;;;;;;;3.73;3.00;;;21.40;55.50;;;;;;5031992;28;20274;-77
2024/03/14 02:36:13;;;;;;;5.87;3.27;;;21.40;55.50;;;;;;5032009;28;20411;-75
2024/03/14 02:38:38;;;;;;;5.80;3.63;;;21.40;55.50;;;;;;5031855;28;20935;-77
2024/03/14 02:41:04;;;;;;;5.47;3.33;;;21.40;55.50;;;;;;5031739;28;20271;-77
2024/03/14 02:43:30;;;;;;;5.93;3.47;;;21.40;55.50;;;;;;5031740;28;20179;-77
2024/03/14 02:45:55;;;;;;;3.60;3.07;;;21.40;55.50;;;;;;5031768;28;20581;-76
2024/03/14 02:48:21;;;;;;;4.53;3.87;;;21.40;55.50;;;;;;5031676;28;20450;-77
2024/03/14 02:50:49;;;;;;;4.40;3.37;;;21.40;55.50;;;;;;5031674;28;20175;-78
2024/03/14 02:53:14;;;;;;;3.60;3.10;;;21.40;55.50;;;;;;5031507;28;20171;-77
2024/03/14 02:55:40;;;;;;;4.63;3.00;;;21.40;55.50;;;;;;5013645;28;21368;-77
2024/03/14 02:58:08;;;;;;;5.17;3.10;;;21.40;55.50;;;;;;5031716;28;20172;-77
2024/03/14 03:00:34;;;;;;;5.27;3.00;;;21.30;55.40;;;;;;5031159;28;20211;-77
2024/03/14 03:03:00;;;;;;;4.40;3.30;;;21.40;55.50;;;;;;5031204;28;20473;-77
2024/03/14 03:05:25;;;;;;;4.20;2.90;;;21.40;55.50;;;;;;5031288;28;20737;-77
2024/03/14 03:07:52;;;;;;;3.43;2.70;;;21.40;55.50;;;;;;5031236;28;20497;-77
2024/03/14 03:10:22;;;;;;;4.00;2.80;;;21.40;55.50;;;;;;5013729;28;20611;-77
2024/03/14 03:12:48;;;;;;;4.43;3.13;;;21.40;55.50;;;;;;5031427;28;20421;-78
2024/03/14 03:15:14;;;;;;;4.43;3.50;;;21.40;56.00;;;;;;5031313;28;20438;-77
2024/03/14 03:17:40;;;;;;;5.27;3.17;;;21.30;55.40;;;;;;5031307;28;20202;-77
2024/03/14 03:20:12;;;;;;;4.57;2.90;;;21.40;55.50;;;;;;5031207;28;20498;-78
2024/03/14 03:25:23;;;;;;;5.00;2.80;;;21.30;55.30;;;;;;5031002;28;20469;-77
2024/03/14 03:27:49;;;;;;;5.83;3.33;;;21.30;55.30;;;;;;5030907;28;20414;-77
2024/03/14 03:30:15;;;;;;;3.90;2.70;;;21.30;55.40;;;;;;5031402;28;20179;-77
2024/03/14 03:32:43;;;;;;;3.50;2.83;;;21.30;55.40;;;;;;5030724;28;20179;-77
2024/03/14 03:35:11;;;;;;;4.63;3.30;;;21.30;55.40;;;;;;5031001;28;20204;-77
2024/03/14 03:37:37;;;;;;;5.10;3.03;;;21.30;55.40;;;;;;5030889;28;20414;-77
2024/03/14 03:40:07;;;;;;;4.30;3.30;;;21.30;55.40;;;;;;5031169;28;20473;-77
2024/03/14 03:42:32;;;;;;;3.73;2.90;;;21.30;55.40;;;;;;5030696;28;20418;-77
2024/03/14 03:44:58;;;;;;;4.27;3.00;;;21.30;55.40;;;;;;5012638;28;20466;-77
2024/03/14 03:47:24;;;;;;;3.60;2.57;;;21.30;55.40;;;;;;5030651;28;20186;-76
2024/03/14 03:49:50;;;;;;;4.00;3.03;;;21.30;55.40;;;;;;5030924;28;20176;-76
2024/03/14 03:52:17;;;;;;;4.40;2.77;;;21.30;55.40;;;;;;5030919;28;20418;-76
2024/03/14 03:54:42;;;;;;;3.90;3.10;;;21.30;55.40;;;;;;5030986;28;20306;-77
2024/03/14 03:57:08;;;;;;;4.70;3.43;;;21.30;55.50;;;;;;5030913;28;20517;-77
2024/03/14 03:59:34;;;;;;;4.20;2.90;;;21.30;55.40;;;;;;5030843;28;20183;-77
2024/03/14 04:02:03;;;;;;;4.00;2.70;;;21.30;55.40;;;;;;5030927;28;20175;-77
2024/03/14 04:04:28;;;;;;;3.33;2.90;;;21.30;55.40;;;;;;5030445;28;20557;-77
2024/03/14 04:06:54;;;;;;;3.70;3.17;;;21.30;55.50;;;;;;5030541;28;20500;-77
2024/03/14 04:09:20;;;;;;;3.63;2.73;;;21.30;55.50;;;;;;5030849;28;20183;-77
2024/03/14 04:11:46;;;;;;;4.60;2.97;;;21.30;55.40;;;;;;5030575;28;20174;-78
2024/03/14 04:14:12;;;;;;;4.47;3.07;;;21.30;55.50;;;;;;5015437;28;20433;-77
2024/03/14 04:16:37;;;;;;;5.40;3.30;;;21.30;55.50;;;;;;5046418;28;20187;-77
2024/03/14 04:19:05;;;;;;;3.50;2.90;;;21.30;55.40;;;;;;5034952;28;20206;-77
2024/03/14 04:21:31;;;;;;;3.53;3.13;;;21.30;55.40;;;;;;5023438;28;20246;-77
2024/03/14 04:23:58;;;;;;;3.70;2.77;;;21.30;55.40;;;;;;5054023;28;20532;-77
2024/03/14 04:26:24;;;;;;;5.90;2.40;;;21.30;55.40;;;;;;5053909;28;20175;-77
2024/03/14 04:28:49;;;;;;;3.33;2.83;;;21.30;55.40;;;;;;5054029;28;20424;-77
2024/03/14 04:31:17;;;;;;;2.77;2.43;;;21.30;55.40;;;;;;5054252;28;20175;-77
2024/03/14 04:33:43;;;;;;;5.00;4.03;;;21.30;55.40;;;;;;5053968;28;20734;-75
2024/03/14 04:36:09;;;;;;;3.73;2.63;;;21.30;55.40;;;;;;5053839;28;20496;-77
2024/03/14 04:38:34;;;;;;;3.60;2.60;;;21.30;55.40;;;;;;5053858;28;20174;-77
2024/03/14 04:41:00;;;;;;;3.93;2.50;;;21.30;55.40;;;;;;5035720;28;20186;-77
2024/03/14 04:43:27;;;;;;;4.10;2.60;;;21.30;55.40;;;;;;5053978;28;20553;-77
2024/03/14 04:45:52;;;;;;;2.27;2.07;;;21.30;55.40;;;;;;5053667;28;20960;-75
2024/03/14 04:48:18;;;;;;;3.40;2.37;;;21.30;55.40;;;;;;5053797;28;20420;-77
2024/03/14 04:50:46;;;;;;;4.20;3.23;;;21.30;55.40;;;;;;5053897;28;20179;-76
2024/03/14 04:53:12;;;;;;;3.80;2.37;;;21.30;55.40;;;;;;5035592;28;20635;-77
2024/03/14 04:55:40;;;;;;;2.83;2.47;;;21.30;55.40;;;;;;5053389;28;20509;-77
2024/03/14 04:58:06;;;;;;;4.17;3.00;;;21.30;55.40;;;;;;5053322;28;20429;-77
2024/03/14 05:00:32;;;;;;;3.70;2.70;;;21.30;55.50;;;;;;5053607;28;20413;-78
2024/03/14 05:02:58;;;;;;;3.93;2.80;;;21.30;55.40;;;;;;5053220;28;20175;-77
2024/03/14 05:05:24;;;;;;;4.53;3.07;;;21.30;55.40;;;;;;5053074;28;20579;-77
2024/03/14 05:07:53;;;;;;;3.53;2.93;;;21.30;55.50;;;;;;5035175;28;20414;-76
2024/03/14 05:10:19;;;;;;;3.00;2.13;;;21.30;55.40;;;;;;5053387;28;20185;-77
2024/03/14 05:12:45;;;;;;;3.30;2.37;;;21.30;55.40;;;;;;5053031;28;20421;-75
2024/03/14 05:15:10;;;;;;;3.93;2.70;;;21.30;55.40;;;;;;5052881;28;20202;-77
2024/03/14 05:17:36;;;;;;;4.07;3.10;;;21.30;55.40;;;;;;5053251;28;20528;-77
2024/03/14 05:20:05;;;;;;;3.33;2.90;;;21.30;55.40;;;;;;5052774;28;20228;-77
2024/03/14 05:22:33;;;;;;;2.93;2.53;;;21.30;55.40;;;;;;5053010;28;20179;-76
2024/03/14 05:25:06;;;;;;;2.70;2.07;;;21.30;55.40;;;;;;5052108;28;20863;-76
2024/03/14 05:27:32;;;;;;;2.80;2.47;;;21.30;55.40;;;;;;5034994;28;20426;-76
2024/03/14 05:29:58;;;;;;;3.80;2.67;;;21.30;55.50;;;;;;5052687;28;20425;-76
2024/03/14 05:32:29;;;;;;;3.90;3.10;;;21.30;55.50;;;;;;5053283;28;20509;-76
2024/03/14 05:34:55;;;;;;;2.60;2.13;;;21.30;55.40;;;;;;5052833;28;20245;-78
2024/03/14 05:37:27;;;;;;;3.67;2.60;;;21.30;55.40;;;;;;5052510;28;20769;-77
2024/03/14 05:39:53;;;;;;;4.10;2.70;;;21.30;55.40;;;;;;5052861;28;20398;-77
2024/03/14 05:42:18;;;;;;;2.70;2.27;;;21.30;55.40;;;;;;5052614;28;20528;-76
2024/03/14 05:44:47;;;;;;;4.80;3.20;;;21.30;55.40;;;;;;5052503;28;20244;-77
2024/03/14 05:47:13;;;;;;;4.87;2.90;;;21.30;55.40;;;;;;5052358;28;20179;-76
2024/03/14 05:49:39;;;;;;;3.03;2.73;;;21.30;55.40;;;;;;5052618;28;20496;-77
2024/03/14 05:52:05;;;;;;;2.90;2.40;;;21.30;55.40;;;;;;5051996;28;20607;-78
2024/03/14 05:54:31;;;;;;;3.70;2.67;;;21.30;55.40;;;;;;5051912;28;20481;-76
2024/03/14 05:56:57;;;;;;;3.87;3.57;;;21.30;55.40;;;;;;5052067;28;20565;-77
2024/03/14 05:59:23;;;;;;;3.63;2.23;;;21.30;55.40;;;;;;5027203;28;20434;-77
2024/03/14 06:01:48;;;;;;;3.30;2.60;;;21.30;55.40;;;;;;5042289;28;20814;-77
2024/03/14 06:04:14;;;;;;;4.10;3.33;;;21.30;55.40;;;;;;5052172;28;20203;-77
2024/03/14 06:06:40;;;;;;;4.07;2.63;;;21.30;55.50;;;;;;5052910;28;20186;-76
2024/03/14 06:09:06;;;;;;;3.53;2.57;;;21.30;55.50;;;;;;5052625;28;20679;-77
2024/03/14 06:11:32;;;;;;;4.17;3.30;;;21.30;55.40;;;;;;5012606;28;20208;-77
2024/03/14 06:13:58;;;;;;;5.13;2.60;;;21.30;55.40;;;;;;5013312;28;20469;-77
2024/03/14 06:16:24;;;;;;;2.93;2.57;;;21.30;55.50;;;;;;5012473;28;20172;-76
2024/03/14 06:18:50;;;;;;;5.63;3.00;;;21.30;55.50;;;;;;4994320;28;20419;-77
2024/03/14 06:21:16;;;;;;;3.57;2.80;;;21.30;55.50;;;;;;5012819;28;20415;-76
2024/03/14 06:23:42;;;;;;;5.70;3.40;;;21.30;55.50;;;;;;5012220;28;20555;-75
2024/03/14 06:26:08;;;;;;;3.00;2.43;;;21.30;55.50;;;;;;5012428;28;20212;-77
2024/03/14 06:28:35;;;;;;;3.27;2.63;;;21.30;55.50;;;;;;5012552;28;20335;-77
2024/03/14 06:31:01;;;;;;;3.17;2.50;;;21.30;55.50;;;;;;5011667;28;20420;-75
2024/03/14 06:33:27;;;;;;;6.03;2.97;;;21.40;55.50;;;;;;5011494;28;20561;-74
2024/03/14 06:35:55;;;;;;;5.20;3.00;;;21.40;55.50;;;;;;5011319;28;20177;-76
2024/03/14 06:38:24;;;;;;;3.43;2.30;;;21.40;55.50;;;;;;5012231;28;20411;-74
2024/03/14 06:40:54;;;;;;;4.73;2.67;;;21.40;55.50;;;;;;5011649;28;20423;-75
2024/03/14 06:43:22;;;;;;;4.10;2.73;;;21.40;55.50;;;;;;4993494;28;20459;-76
2024/03/14 06:45:48;;;;;;;5.60;3.03;;;21.40;55.50;;;;;;5011067;28;20450;-75
2024/03/14 06:48:14;;;;;;;5.33;2.90;;;21.40;55.50;;;;;;5011011;28;20507;-76
2024/03/14 06:50:40;;;;;;;3.10;2.30;;;21.40;55.50;;;;;;5010890;28;20930;-75
2024/03/14 06:53:06;;;;;;;2.80;2.50;;;21.40;55.50;;;;;;5010813;28;20960;-77
2024/03/14 06:55:31;;;;;;;5.23;2.33;;;21.40;55.50;;;;;;5010820;28;20533;-75
2024/03/14 06:57:57;;;;;;;3.33;2.73;;;21.40;55.50;;;;;;5010814;28;20642;-76
2024/03/14 07:00:24;;;;;;;3.77;2.90;;;21.40;55.50;;;;;;5010719;28;20177;-76
2024/03/14 07:02:50;;;;;;;3.93;2.23;;;21.40;55.50;;;;;;5010846;28;20176;-76
2024/03/14 07:05:15;;;;;;;2.60;2.20;;;21.50;55.60;;;;;;4992899;28;20513;-77
2024/03/14 07:07:45;;;;;;;2.20;2.00;;;21.50;55.60;;;;;;5010637;28;20172;-77
2024/03/14 07:10:14;;;;;;;3.60;2.60;;;21.50;55.60;;;;;;5010961;28;20172;-77
2024/03/14 07:12:41;;;;;;;4.53;2.17;;;21.50;55.60;;;;;;5010515;28;20447;-75
2024/03/14 07:15:07;;;;;;;7.13;3.27;;;21.50;55.70;;;;;;4993494;28;20463;-76
2024/03/14 07:17:34;;;;;;;3.53;2.40;;;21.50;55.60;;;;;;5010646;28;20945;-74
2024/03/14 07:20:06;;;;;;;4.20;2.47;;;21.50;55.60;;;;;;5010858;28;20206;-76
2024/03/14 07:22:34;;;;;;;3.20;2.60;;;21.50;55.60;;;;;;5010656;28;20513;-76
2024/03/14 07:24:59;;;;;;;4.47;2.70;;;21.50;55.60;;;;;;5010578;28;20467;-75
2024/03/14 07:27:27;;;;;;;4.50;2.37;;;21.50;55.60;;;;;;5010454;28;20419;-77
2024/03/14 07:29:53;;;;;;;4.70;2.10;;;21.50;55.60;;;;;;5010631;28;20178;-76
2024/03/14 07:32:19;;;;;;;2.53;2.33;;;21.50;55.60;;;;;;5010510;28;20403;-76
2024/03/14 07:34:44;;;;;;;3.60;2.30;;;21.50;55.60;;;;;;5010748;28;20215;-76
2024/03/14 07:37:13;;;;;;;3.80;2.20;;;21.50;55.60;;;;;;4992770;28;20180;-76
2024/03/14 07:39:39;;;;;;;3.20;2.17;;;21.50;55.60;;;;;;5010451;28;20617;-75
2024/03/14 07:42:05;;;;;;;3.80;2.77;;;21.50;55.60;;;;;;5010395;28;20411;-76
2024/03/14 07:44:31;;;;;;;2.73;2.17;;;21.50;56.10;;;;;;5010554;28;20481;-75
2024/03/14 07:46:58;;;;;;;2.60;2.17;;;21.60;55.70;;;;;;5010945;28;20411;-77
2024/03/14 07:49:25;;;;;;;3.10;2.13;;;21.60;55.70;;;;;;5014421;28;20437;-76
2024/03/14 07:51:52;;;;;;;4.77;2.30;;;21.60;55.70;;;;;;5014200;28;20501;-75
2024/03/14 07:54:18;;;;;;;2.93;2.33;;;21.60;55.70;;;;;;5014172;28;20446;-75
2024/03/14 07:56:46;;;;;;;2.73;2.53;;;21.60;55.70;;;;;;5014318;28;20399;-76
2024/03/14 07:59:12;;;;;;;3.77;2.30;;;21.60;55.70;;;;;;5014101;28;20415;-76
2024/03/14 08:01:37;;;;;;;4.23;2.20;;;21.60;55.70;;;;;;5014301;28;20410;-76
2024/03/14 08:04:04;;;;;;;3.93;2.80;;;21.60;55.70;;;;;;5021247;23;20569;-77
2024/03/14 08:06:39;;;;;;;3.93;2.70;;;21.60;55.70;;;;;;4996816;28;20211;-77
2024/03/14 08:09:05;;;;;;;2.83;2.50;;;21.60;55.70;;;;;;5014441;28;20399;-76
2024/03/14 08:11:42;;;;;;;3.13;2.00;;;21.60;55.70;;;;;;4996161;28;20419;-77
2024/03/14 08:14:08;;;;;;;2.70;2.17;;;21.60;55.70;;;;;;5013742;28;20699;-76
2024/03/14 08:16:35;;;;;;;4.77;2.87;;;21.60;55.70;;;;;;5013829;28;20422;-76
2024/03/14 08:19:01;;;;;;;4.43;2.40;;;21.60;55.70;;;;;;5013849;28;20180;-75
2024/03/14 08:21:29;;;;;;;3.13;2.50;;;21.60;55.70;;;;;;5013867;28;20417;-77
2024/03/14 08:23:55;;;;;;;3.30;2.20;;;21.70;55.70;;;;;;5013871;28;20207;-76
2024/03/14 08:26:21;;;;;;;4.53;2.70;;;21.60;55.70;;;;;;5014100;28;20426;-76
2024/03/14 08:28:47;;;;;;;4.10;2.37;;;21.60;55.70;;;;;;5013875;28;20522;-73
2024/03/14 08:31:17;;;;;;;3.37;2.20;;;21.70;55.80;;;;;;5013591;28;20529;-76
2024/03/14 08:33:44;;;;;;;4.43;2.20;;;21.70;55.70;;;;;;5013592;28;20287;-77
2024/03/14 08:36:11;;;;;;;4.93;2.17;;;21.70;55.80;;;;;;5014467;28;20423;-77
2024/03/14 08:38:36;;;;;;;3.13;2.60;;;21.70;55.70;;;;;;5013296;28;20927;-75
2024/03/14 08:41:03;;;;;;;2.30;1.90;;;21.70;55.80;;;;;;5013302;28;20418;-76
2024/03/14 08:43:30;;;;;;;3.80;3.00;;;21.70;55.70;;;;;;5013210;28;20238;-76
2024/03/14 08:45:56;;;;;;;2.97;2.07;;;21.70;55.70;;;;;;5013289;28;20494;-76
2024/03/14 08:48:22;;;;;;;3.43;2.23;;;21.70;55.70;;;;;;4995448;28;20952;-77
2024/03/14 08:50:48;;;;;;;3.50;2.63;;;21.70;55.70;;;;;;5013307;28;20168;-77
2024/03/14 08:53:15;;;;;;;3.30;2.40;;;21.70;55.80;;;;;;5013152;28;20549;-75
2024/03/14 08:55:50;;;;;;;3.40;2.13;;;21.70;55.70;;;;;;5012967;28;20239;-77
2024/03/14 08:58:16;;;;;;;3.00;2.17;;;21.70;55.70;;;;;;5012932;28;20476;-77
2024/03/14 09:00:42;;;;;;;3.27;2.27;;;21.70;55.80;;;;;;4994928;28;20833;-76
2024/03/14 09:03:08;;;;;;;4.73;2.77;;;21.70;55.70;;;;;;5013754;28;20588;-75
2024/03/14 09:05:34;;;;;;;3.17;2.67;;;21.70;55.80;;;;;;5013474;28;20499;-76
2024/03/14 09:07:59;;;;;;;2.53;2.03;;;21.70;55.80;;;;;;5013492;28;20416;-76
2024/03/14 09:10:25;;;;;;;2.63;2.00;;;21.70;55.70;;;;;;5013490;28;20184;-77
2024/03/14 09:12:55;;;;;;;3.07;2.30;;;21.70;55.70;;;;;;5013225;28;20644;-77
2024/03/14 09:15:24;;;;;;;2.63;1.93;;;21.70;55.70;;;;;;5012956;28;20714;-76
2024/03/14 09:17:52;;;;;;;2.97;2.43;;;21.70;55.70;;;;;;5012624;28;20430;-75
2024/03/14 09:20:21;;;;;;;2.60;2.10;;;21.70;55.80;;;;;;5012685;28;20423;-76
2024/03/14 09:22:53;;;;;;;2.30;1.77;;;21.70;55.70;;;;;;5012630;28;20426;-75
2024/03/14 09:25:21;;;;;;;2.33;1.70;;;21.70;55.70;;;;;;5012597;28;20474;-77
2024/03/14 09:27:46;;;;;;;2.53;2.33;;;21.80;55.80;;;;;;5012748;28;20423;-77
2024/03/14 09:30:13;;;;;;;2.87;2.17;;;21.80;55.90;;;;;;5012851;28;20418;-76
2024/03/14 09:32:40;;;;;;;4.07;2.60;;;21.70;55.80;;;;;;5013049;28;20179;-76
2024/03/14 09:35:49;;;;;;;2.53;2.10;;;21.80;55.80;;;;;;5012311;28;20505;-75
2024/03/14 09:37:55;;;;;;;3.17;2.27;;;21.80;55.90;;;;;;5006785;28;20423;-77
2024/03/14 09:40:22;;;;;;;3.67;2.27;;;21.80;55.90;;;;;;5012700;28;20415;-76
2024/03/14 09:42:59;;;;;;;3.43;2.00;;;21.80;55.90;;;;;;5012342;28;20168;-76
2024/03/14 09:45:25;;;;;;;2.43;2.17;;;21.80;55.90;;;;;;5012372;28;21005;-75
2024/03/14 09:47:51;;;;;;;3.47;2.23;;;21.80;55.90;;;;;;5012794;28;20908;-73
2024/03/14 09:50:22;;;;;;;3.37;2.17;;;21.80;55.90;;;;;;5012236;28;20415;-75
2024/03/14 09:52:48;;;;;;;3.73;2.23;;;21.80;56.40;;;;;;5012034;28;20411;-76
2024/03/14 09:55:15;;;;;;;2.47;1.77;;;21.80;55.80;;;;;;5033896;23;20494;-75
2024/03/14 09:57:45;;;;;;;2.63;2.07;;;21.80;55.90;;;;;;5014422;28;20415;-77
2024/03/14 10:00:15;;;;;;;2.13;1.60;;;21.80;55.90;;;;;;5031998;28;21016;-77
2024/03/14 10:02:41;;;;;;;2.33;1.80;;;21.80;55.80;;;;;;5032330;28;20498;-77
2024/03/14 10:05:11;;;;;;;2.00;1.80;;;21.80;55.80;;;;;;5025776;22;20858;-77
2024/03/14 10:07:38;;;;;;;2.73;2.10;;;21.80;55.90;;;;;;4994498;28;20985;-76
2024/03/14 10:10:05;;;;;;;2.40;1.63;;;21.80;55.80;;;;;;5011501;28;20431;-76
2024/03/14 10:12:31;;;;;;;2.40;1.70;;;21.80;55.80;;;;;;5011194;28;20399;-76
2024/03/14 10:15:00;;;;;;;3.50;2.27;;;21.80;55.90;;;;;;5011945;28;20427;-75
2024/03/14 10:17:26;;;;;;;3.40;2.23;;;21.80;55.80;;;;;;5012099;28;20446;-77
2024/03/14 10:19:52;;;;;;;2.40;1.90;;;21.80;55.80;;;;;;5012225;28;21094;-75
2024/03/14 10:22:18;;;;;;;4.30;2.40;;;21.80;55.80;;;;;;4993899;28;20419;-76
2024/03/14 10:24:45;;;;;;;2.53;2.33;;;21.90;55.90;;;;;;5011099;28;20458;-76
2024/03/14 10:27:11;;;;;;;5.83;2.27;;;21.90;55.90;;;;;;5011213;28;20519;-76
2024/03/14 10:29:36;;;;;;;2.10;1.83;;;21.90;55.90;;;;;;5011190;28;20778;-75
2024/03/14 10:32:03;;;;;;;4.87;2.10;;;21.90;55.90;;;;;;5011543;28;20181;-75
2024/03/14 10:34:29;;;;;;;3.37;1.80;;;21.80;55.80;;;;;;5011167;28;20199;-76
2024/03/14 10:36:55;;;;;;;2.40;1.80;;;21.90;55.90;;;;;;5011063;28;20411;-76
2024/03/14 10:39:26;;;;;;;2.43;1.87;;;21.90;55.90;;;;;;4993795;28;20183;-77
2024/03/14 10:41:53;;;;;;;2.97;2.17;;;21.90;55.90;;;;;;5011282;28;20671;-76
2024/03/14 10:44:21;;;;;;;3.50;1.97;;;21.80;55.80;;;;;;5010804;28;20435;-76
2024/03/14 10:46:51;;;;;;;2.93;2.17;;;21.90;55.90;;;;;;5010978;28;20989;-77
2024/03/14 10:49:24;;;;;;;4.00;2.17;;;21.90;55.90;;;;;;5011629;28;20909;-77
2024/03/14 10:51:51;;;;;;;2.87;2.23;;;21.90;55.90;;;;;;5011281;28;20896;-75
2024/03/14 10:54:23;;;;;;;3.63;2.37;;;21.90;55.90;;;;;;5010983;28;20435;-73
2024/03/14 10:56:50;;;;;;;2.27;1.90;;;21.90;55.90;;;;;;5011056;28;20407;-75
2024/03/14 10:59:16;;;;;;;2.93;1.87;;;21.90;55.90;;;;;;5010742;28;20480;-75
2024/03/14 11:01:54;;;;;;;2.60;1.87;;;21.90;55.90;;;;;;4993321;28;20412;-74
2024/03/14 11:04:20;;;;;;;2.40;1.73;;;21.90;55.90;;;;;;5010787;28;20834;-74
2024/03/14 11:06:50;;;;;;;2.57;1.87;;;21.90;55.90;;;;;;5010660;28;20441;-76
2024/03/14 11:09:25;;;;;;;2.70;2.20;;;21.90;55.90;;;;;;5010631;28;20920;-75
2024/03/14 11:11:57;;;;;;;2.80;1.87;;;21.90;55.90;;;;;;5011074;28;20402;-74
2024/03/14 11:14:33;;;;;;;3.37;1.70;;;21.90;55.90;;;;;;5011114;28;20442;-76
2024/03/14 11:17:00;;;;;;;2.80;2.00;;;21.90;55.90;;;;;;5010737;28;20898;-75
2024/03/14 11:19:26;;;;;;;1.53;1.40;;;21.90;55.90;;;;;;5010835;28;20411;-76
2024/03/14 11:21:53;;;;;;;2.53;1.90;;;21.90;55.90;;;;;;5010471;28;20415;-75
2024/03/14 11:24:23;;;;;;;2.83;2.17;;;21.90;56.00;;;;;;4993318;28;20442;-76
2024/03/14 11:26:51;;;;;;;2.20;1.63;;;21.90;55.90;;;;;;5010657;28;21012;-76
2024/03/14 11:29:20;;;;;;;3.80;2.37;;;21.90;56.00;;;;;;4993348;28;20469;-75
2024/03/14 11:32:18;;;;;;;3.53;2.50;;;21.90;55.90;;;;;;5011357;28;20415;-75
2024/03/14 11:34:47;;;;;;;2.50;1.80;;;21.90;55.90;;;;;;5011658;28;20435;-75
2024/03/14 11:37:14;;;;;;;2.33;2.10;;;21.90;55.90;;;;;;5011679;28;20831;-76
2024/03/14 11:39:47;;;;;;;1.80;1.60;;;21.90;55.90;;;;;;5011444;28;20490;-75
2024/03/14 11:42:14;;;;;;;2.00;1.70;;;21.90;55.90;;;;;;5011222;28;20395;-74
2024/03/14 11:44:45;;;;;;;4.33;3.03;;;21.90;55.90;;;;;;5027199;23;20504;-77
2024/03/14 11:47:14;;;;;;;1.80;1.60;;;21.90;55.90;;;;;;5012704;28;20433;-76
2024/03/14 11:49:48;;;;;;;2.20;1.70;;;21.90;55.90;;;;;;5012520;28;20415;-76
2024/03/14 11:52:15;;;;;;;2.23;1.90;;;21.90;55.90;;;;;;5029826;28;20393;-75
2024/03/14 11:54:56;;;;;;;2.07;1.57;;;21.90;55.90;;;;;;5029721;28;20456;-75
2024/03/14 11:57:25;;;;;;;15.73;2.57;;;21.90;55.90;;;;;;5029760;28;20418;-76
2024/03/14 11:59:50;;;;;;;2.43;1.67;;;21.90;55.80;;;;;;5029946;28;20420;-75
2024/03/14 12:02:16;;;;;;;3.07;2.37;;;21.90;55.90;;;;;;5029716;28;20493;-76
2024/03/14 12:04:42;;;;;;;2.43;2.00;;;21.90;55.80;;;;;;5011732;28;20337;-75
2024/03/14 12:07:08;;;;;;;3.37;2.00;;;21.90;55.80;;;;;;5029683;28;20446;-76
2024/03/14 12:09:35;;;;;;;2.60;1.60;;;21.90;55.80;;;;;;5030056;28;20180;-76
2024/03/14 12:12:01;;;;;;;2.37;1.87;;;21.90;55.80;;;;;;5030185;28;20416;-76
2024/03/14 12:14:28;;;;;;;3.60;2.20;;;21.90;55.80;;;;;;5011875;28;20438;-76
2024/03/14 12:16:54;;;;;;;2.10;1.90;;;21.90;55.80;;;;;;5012025;28;20230;-75
2024/03/14 12:19:20;;;;;;;2.40;1.60;;;21.90;55.80;;;;;;5012143;28;20783;-74
2024/03/14 12:21:49;;;;;;;2.93;1.60;;;21.90;55.80;;;;;;5012304;28;20180;-76
2024/03/14 12:24:15;;;;;;;2.73;2.10;;;21.90;55.80;;;;;;5029689;28;20191;-75
2024/03/14 12:26:42;;;;;;;1.70;1.50;;;21.90;55.80;;;;;;5012334;28;20456;-76
2024/03/14 12:29:09;;;;;;;2.50;1.80;;;21.90;55.90;;;;;;5012174;28;20587;-76
2024/03/14 12:31:35;;;;;;;2.03;1.77;;;21.90;55.80;;;;;;5012074;28;20422;-75
2024/03/14 12:34:03;;;;;;;2.23;2.03;;;21.90;55.90;;;;;;5030577;28;20841;-76
2024/03/14 12:36:30;;;;;;;2.07;1.73;;;21.90;55.90;;;;;;5034227;28;20414;-76
2024/03/14 12:38:58;;;;;;;2.47;1.77;;;21.90;55.90;;;;;;5016455;28;20414;-77
2024/03/14 12:41:24;;;;;;;1.60;1.50;;;21.90;56.40;;;;;;5034263;28;20409;-76
2024/03/14 12:43:52;;;;;;;2.20;1.80;;;21.90;55.80;;;;;;5016541;28;20442;-76
2024/03/14 12:46:22;;;;;;;2.00;1.80;;;21.90;55.80;;;;;;5016373;28;20478;-77
2024/03/14 12:48:49;;;;;;;2.03;1.67;;;21.90;55.80;;;;;;5000394;28;20415;-76
2024/03/14 12:51:19;;;;;;;1.77;1.60;;;21.90;55.80;;;;;;5034158;28;20422;-76